Time;durP1;ratioP1;P1;durP2;ratioP2;P2;SDS_P1;SDS_P2;PMS_P1;PMS_P2;Temp;Humidity;BMP_temperature;BMP_pressure;BME280_temperature;BME280_humidity;BME280_pressure;Samples;Min_cycle;Max_cycle;Signal;HPM_P1;HPM_P2
2023/03/30 00:01:30;;;;;;;9.05;2.30;;;14.60;1.00;;;;;;7365690;19;20490;-70
2023/03/30 00:04:01;;;;;;;13.02;3.30;;;14.50;1.00;;;;;;7365839;19;20340;-71
2023/03/30 00:06:33;;;;;;;11.25;2.45;;;14.40;1.00;;;;;;7364720;19;20723;-70
2023/03/30 00:09:04;;;;;;;7.88;2.75;;;14.40;1.00;;;;;;7366099;19;20023;-71
2023/03/30 00:11:37;;;;;;;10.73;2.92;;;14.30;1.00;;;;;;7377378;19;20038;-70
2023/03/30 00:14:07;;;;;;;12.15;3.10;;;14.30;1.00;;;;;;7366138;19;20010;-72
2023/03/30 00:16:37;;;;;;;13.25;2.50;;;14.30;1.00;;;;;;7365240;19;20031;-71
2023/03/30 00:19:07;;;;;;;10.75;2.40;;;14.30;1.00;;;;;;7366116;19;20844;-71
2023/03/30 00:21:37;;;;;;;8.35;2.67;;;14.40;1.00;;;;;;7367222;19;20013;-71
2023/03/30 00:24:07;;;;;;;8.70;2.42;;;14.40;1.00;;;;;;7367271;19;20015;-71
2023/03/30 00:26:40;;;;;;;13.43;2.42;;;14.40;1.00;;;;;;7385901;19;20014;-71
2023/03/30 00:29:10;;;;;;;13.40;2.67;;;14.40;1.00;;;;;;7363287;19;20011;-71
2023/03/30 00:31:40;;;;;;;11.38;2.50;;;14.60;1.00;;;;;;7366870;19;20107;-70
2023/03/30 00:34:10;;;;;;;7.00;2.20;;;14.60;1.00;;;;;;7365488;19;20031;-71
2023/03/30 00:36:40;;;;;;;11.60;2.92;;;14.60;1.00;;;;;;7365276;19;20014;-70
2023/03/30 00:39:10;;;;;;;11.75;2.55;;;14.60;1.00;;;;;;7365461;19;20469;-70
2023/03/30 00:41:43;;;;;;;9.77;2.40;;;14.50;1.00;;;;;;7386880;19;20022;-71
2023/03/30 00:44:43;;;;;;;7.88;2.45;;;14.60;1.00;;;;;;7366334;19;20047;-70
2023/03/30 00:47:13;;;;;;;10.65;2.65;;;14.50;1.00;;;;;;7364846;19;20013;-71
2023/03/30 00:49:43;;;;;;;10.75;2.10;;;14.50;1.00;;;;;;7362783;19;20511;-70
2023/03/30 00:52:18;;;;;;;9.57;2.20;;;14.40;1.00;;;;;;7365684;19;20459;-70
2023/03/30 00:54:49;;;;;;;8.80;2.28;;;14.20;1.00;;;;;;7364480;19;20010;-71
2023/03/30 00:57:24;;;;;;;8.93;2.58;;;14.20;1.00;;;;;;7365664;19;20074;-71
2023/03/30 00:59:56;;;;;;;7.93;2.50;;;14.10;1.00;;;;;;7372717;19;20031;-70
2023/03/30 01:02:26;;;;;;;11.02;2.47;;;14.20;1.00;;;;;;7394744;19;20021;-70
2023/03/30 01:04:58;;;;;;;8.05;2.17;;;14.20;1.00;;;;;;7371923;19;20017;-70
2023/03/30 01:07:28;;;;;;;11.20;2.75;;;14.40;1.00;;;;;;7387329;19;20020;-71
2023/03/30 01:09:58;;;;;;;10.05;2.72;;;14.30;1.00;;;;;;7405249;19;20011;-70
2023/03/30 01:12:31;;;;;;;10.20;2.85;;;14.20;1.00;;;;;;7406059;19;20057;-71
2023/03/30 01:15:01;;;;;;;13.82;2.75;;;14.20;1.00;;;;;;7383432;19;20011;-69
2023/03/30 01:17:38;;;;;;;13.57;2.72;;;14.20;1.00;;;;;;7395260;19;20025;-69
2023/03/30 01:20:48;;;;;;;12.50;2.47;;;14.30;1.00;;;;;;7369910;19;20003;-71
2023/03/30 01:23:54;;;;;;;11.05;3.10;;;14.30;1.00;;;;;;7371954;19;20314;-71
2023/03/30 01:26:43;;;;;;;9.35;2.55;;;14.20;1.00;;;;;;7373983;19;20125;-71
2023/03/30 01:29:35;;;;;;;11.57;2.88;;;14.20;1.00;;;;;;7370440;19;20458;-69
2023/03/30 01:32:40;;;;;;;12.68;2.20;;;14.20;1.00;;;;;;7372777;19;20016;-70
2023/03/30 01:35:44;;;;;;;9.48;2.40;;;14.20;1.00;;;;;;7369596;19;20359;-70
2023/03/30 01:38:47;;;;;;;12.77;2.43;;;14.30;1.00;;;;;;7368564;19;20050;-71
2023/03/30 01:41:24;;;;;;;16.00;3.03;;;14.50;1.00;;;;;;7371343;19;20093;-72
2023/03/30 01:44:02;;;;;;;8.95;2.55;;;14.60;1.00;;;;;;7371142;19;20016;-71
2023/03/30 01:46:39;;;;;;;8.65;2.38;;;14.60;1.00;;;;;;7367943;19;20028;-72
2023/03/30 01:49:15;;;;;;;8.57;2.35;;;14.60;1.00;;;;;;7369743;19;20082;-72
2023/03/30 01:51:52;;;;;;;15.75;2.67;;;14.50;1.00;;;;;;7370765;19;20116;-72
2023/03/30 01:54:25;;;;;;;10.88;2.35;;;14.40;1.00;;;;;;7368691;19;20018;-72
2023/03/30 01:57:01;;;;;;;21.70;2.83;;;14.40;1.00;;;;;;7370397;19;20014;-72
2023/03/30 01:59:35;;;;;;;9.23;2.58;;;14.50;1.00;;;;;;7390413;19;20045;-71
2023/03/30 02:02:06;;;;;;;13.82;2.97;;;14.70;1.00;;;;;;7371489;19;20018;-72
2023/03/30 02:04:40;;;;;;;12.93;2.88;;;14.70;1.00;;;;;;7368727;19;20018;-72
2023/03/30 02:07:15;;;;;;;11.13;2.40;;;14.70;1.00;;;;;;7371091;19;20466;-72
2023/03/30 02:09:47;;;;;;;13.50;3.05;;;14.50;1.00;;;;;;7366899;19;20014;-72
2023/03/30 02:12:20;;;;;;;13.23;3.00;;;14.50;1.00;;;;;;7372050;19;20011;-72
2023/03/30 02:14:51;;;;;;;9.05;2.40;;;14.50;1.00;;;;;;7389567;19;20015;-71
2023/03/30 02:17:26;;;;;;;11.05;3.15;;;14.40;1.00;;;;;;7368445;19;20009;-72
2023/03/30 02:19:56;;;;;;;11.05;2.40;;;14.40;1.00;;;;;;7367471;19;20014;-72
2023/03/30 02:22:28;;;;;;;14.65;3.28;;;14.40;1.00;;;;;;7369850;19;20431;-72
2023/03/30 02:24:59;;;;;;;12.63;2.88;;;14.40;1.00;;;;;;7367882;19;20050;-72
2023/03/30 02:27:33;;;;;;;13.52;2.88;;;14.40;1.00;;;;;;7368919;19;20035;-72
2023/03/30 02:30:03;;;;;;;;;;;14.50;1.00;;;;;;7367662;19;20014;-72
2023/03/30 02:32:42;;;;;;;12.23;2.70;;;14.40;1.00;;;;;;7390985;19;19914;-72
2023/03/30 02:35:31;;;;;;;10.45;2.55;;;14.40;1.00;;;;;;7366920;19;20098;-72
2023/03/30 02:38:36;;;;;;;19.00;3.50;;;14.40;1.00;;;;;;7369829;19;20038;-72
2023/03/30 02:41:17;;;;;;;12.90;2.67;;;14.40;1.00;;;;;;7367652;19;20502;-72
2023/03/30 02:43:59;;;;;;;10.07;2.70;;;14.40;1.00;;;;;;7369744;19;20027;-72
2023/03/30 02:46:49;;;;;;;11.63;2.80;;;14.30;1.00;;;;;;7369335;19;20014;-72
2023/03/30 02:49:30;;;;;;;8.27;2.53;;;14.30;1.00;;;;;;7367806;19;20010;-72
2023/03/30 02:52:06;;;;;;;12.02;3.30;;;14.20;1.00;;;;;;7368855;19;20006;-72
2023/03/30 02:54:47;;;;;;;11.23;2.75;;;14.20;1.00;;;;;;7366044;19;20018;-72
2023/03/30 02:57:26;;;;;;;15.50;3.20;;;14.20;1.00;;;;;;7371171;19;20006;-72
2023/03/30 03:00:06;;;;;;;17.85;3.25;;;14.20;1.00;;;;;;7365720;19;20014;-72
2023/03/30 03:02:40;;;;;;;14.60;2.88;;;14.20;1.00;;;;;;7389007;19;20039;-72
2023/03/30 03:05:13;;;;;;;17.23;3.80;;;14.10;1.00;;;;;;7365599;19;20034;-72
2023/03/30 03:07:43;;;;;;;14.00;3.65;;;14.00;1.00;;;;;;7367715;19;20042;-72
2023/03/30 03:10:13;;;;;;;16.33;3.17;;;13.90;1.00;;;;;;7366119;19;20059;-71
2023/03/30 03:12:45;;;;;;;20.02;3.85;;;13.80;1.00;;;;;;7368617;19;20018;-71
2023/03/30 03:15:18;;;;;;;13.50;3.22;;;13.50;1.00;;;;;;7367005;19;20035;-71
2023/03/30 03:17:50;;;;;;;19.02;3.85;;;13.40;3.20;;;;;;7389532;19;20018;-71
2023/03/30 03:20:20;;;;;;;19.55;3.58;;;13.30;5.40;;;;;;7365095;19;20035;-71
2023/03/30 03:22:50;;;;;;;16.60;3.63;;;13.40;3.80;;;;;;7368062;19;20011;-72
2023/03/30 03:25:20;;;;;;;8.40;3.63;;;13.50;2.70;;;;;;7365747;19;20014;-72
2023/03/30 03:27:50;;;;;;;15.18;3.03;;;13.50;2.70;;;;;;7368567;19;20023;-72
2023/03/30 03:30:23;;;;;;;17.90;3.38;;;13.60;1.20;;;;;;7366146;19;20028;-71
2023/03/30 03:32:53;;;;;;;13.73;2.90;;;13.50;1.70;;;;;;7374093;19;20471;-71
2023/03/30 03:35:23;;;;;;;22.13;3.97;;;13.40;4.50;;;;;;7386059;19;20010;-71
2023/03/30 03:37:53;;;;;;;11.77;3.33;;;13.30;5.90;;;;;;7368438;19;20010;-71
2023/03/30 03:40:23;;;;;;;15.10;3.10;;;13.30;7.30;;;;;;7367419;19;20104;-71
2023/03/30 03:42:52;;;;;;;21.10;4.20;;;13.20;9.10;;;;;;7367473;19;20471;-69
2023/03/30 03:45:25;;;;;;;13.73;3.13;;;13.20;10.00;;;;;;7366207;19;20491;-70
2023/03/30 03:47:55;;;;;;;20.75;3.80;;;13.20;11.20;;;;;;7369090;19;20010;-69
2023/03/30 03:50:26;;;;;;;23.73;6.20;;;13.10;11.80;;;;;;7388335;19;20023;-70
2023/03/30 03:52:56;;;;;;;16.67;4.18;;;13.30;11.10;;;;;;7368854;19;20076;-69
2023/03/30 03:55:27;;;;;;;16.17;4.43;;;13.20;11.10;;;;;;7365469;19;20070;-71
2023/03/30 03:57:57;;;;;;;15.27;4.38;;;13.00;15.20;;;;;;7369727;19;20014;-70
2023/03/30 04:00:29;;;;;;;12.77;3.83;;;13.00;16.60;;;;;;7367664;19;20071;-70
2023/03/30 04:03:00;;;;;;;14.00;3.92;;;13.00;15.20;;;;;;7369156;19;20079;-71
2023/03/30 04:05:29;;;;;;;16.92;3.60;;;13.00;14.90;;;;;;7388481;19;20006;-70
2023/03/30 04:08:00;;;;;;;22.02;4.28;;;13.00;13.70;;;;;;7368374;19;20014;-70
2023/03/30 04:10:30;;;;;;;18.45;4.60;;;12.90;15.00;;;;;;7365132;19;20039;-70
2023/03/30 04:13:00;;;;;;;14.00;3.28;;;12.90;15.40;;;;;;7367937;19;20301;-70
2023/03/30 04:15:33;;;;;;;16.13;4.50;;;12.90;14.40;;;;;;7363983;19;20558;-70
2023/03/30 04:18:04;;;;;;;16.50;4.00;;;12.90;14.60;;;;;;7367568;19;20347;-70
2023/03/30 04:20:34;;;;;;;17.05;4.00;;;12.90;15.00;;;;;;7384806;19;20011;-70
2023/03/30 04:23:04;;;;;;;12.63;3.95;;;12.90;15.40;;;;;;7367258;19;20014;-70
2023/03/30 04:25:35;;;;;;;19.10;4.00;;;12.90;15.30;;;;;;7363854;19;20010;-72
2023/03/30 04:28:05;;;;;;;12.65;3.45;;;12.90;15.60;;;;;;7367293;19;20014;-70
2023/03/30 04:30:37;;;;;;;22.45;3.97;;;12.80;15.90;;;;;;7364742;19;20046;-70
2023/03/30 04:33:08;;;;;;;17.17;3.97;;;12.80;16.70;;;;;;7369637;19;20533;-70
2023/03/30 04:35:38;;;;;;;16.92;4.32;;;12.80;17.00;;;;;;7393589;19;20466;-69
2023/03/30 04:38:08;;;;;;;14.63;3.90;;;12.70;17.00;;;;;;7375980;19;20011;-70
2023/03/30 04:40:38;;;;;;;11.27;3.80;;;12.70;17.20;;;;;;7372478;19;20041;-70
2023/03/30 04:43:08;;;;;;;13.05;3.80;;;12.80;17.00;;;;;;7373873;19;20652;-72
2023/03/30 04:45:41;;;;;;;11.77;3.22;;;12.80;17.00;;;;;;7370413;19;20486;-72
2023/03/30 04:48:12;;;;;;;20.83;3.70;;;12.70;16.80;;;;;;7404246;19;20042;-71
2023/03/30 04:50:42;;;;;;;18.80;4.57;;;12.80;16.40;;;;;;7426689;19;20324;-71
2023/03/30 04:53:13;;;;;;;17.38;3.42;;;12.80;16.20;;;;;;7407487;19;20015;-72
2023/03/30 04:55:43;;;;;;;14.45;4.10;;;12.80;16.00;;;;;;7378945;19;20019;-70
2023/03/30 04:58:13;;;;;;;16.30;4.10;;;12.80;17.00;;;;;;7387123;19;20007;-72
2023/03/30 05:00:46;;;;;;;20.05;4.47;;;12.80;17.00;;;;;;7370269;19;20014;-71
2023/03/30 05:03:16;;;;;;;11.65;3.92;;;12.80;17.00;;;;;;7372997;19;20470;-71
2023/03/30 05:05:48;;;;;;;11.45;3.83;;;12.70;17.20;;;;;;7393015;19;20022;-71
2023/03/30 05:08:17;;;;;;;13.65;3.88;;;12.70;18.50;;;;;;7370287;19;20003;-71
2023/03/30 05:10:47;;;;;;;11.57;3.45;;;12.80;17.00;;;;;;7371178;19;20013;-71
2023/03/30 05:13:18;;;;;;;17.70;3.65;;;12.80;17.00;;;;;;7373547;19;20020;-71
2023/03/30 05:15:57;;;;;;;12.10;3.42;;;12.80;16.60;;;;;;7370551;19;20026;-70
2023/03/30 05:18:27;;;;;;;11.65;4.05;;;12.90;16.00;;;;;;7370320;19;20027;-70
2023/03/30 05:20:59;;;;;;;17.98;3.63;;;12.90;15.60;;;;;;7369431;19;20014;-70
2023/03/30 05:23:29;;;;;;;16.08;4.05;;;12.90;14.80;;;;;;7392162;19;20015;-71
2023/03/30 05:25:59;;;;;;;14.75;3.70;;;13.00;13.40;;;;;;7370726;19;20014;-71
2023/03/30 05:28:29;;;;;;;20.85;4.20;;;13.00;13.30;;;;;;7372283;19;20006;-70
2023/03/30 05:31:03;;;;;;;14.43;3.60;;;13.00;13.40;;;;;;7369065;19;20033;-71
2023/03/30 05:33:34;;;;;;;17.08;5.22;;;13.00;13.90;;;;;;7371808;19;20039;-69
2023/03/30 05:36:04;;;;;;;13.43;4.20;;;13.00;13.40;;;;;;7367734;19;20022;-70
2023/03/30 05:38:34;;;;;;;22.25;4.78;;;13.10;13.20;;;;;;7389924;19;20474;-72
2023/03/30 05:41:06;;;;;;;18.77;4.80;;;13.10;13.50;;;;;;7369110;19;20010;-71
2023/03/30 05:43:36;;;;;;;15.40;4.82;;;13.10;13.30;;;;;;7369997;19;20007;-71
2023/03/30 05:46:09;;;;;;;17.05;3.92;;;13.10;13.00;;;;;;7369487;19;20041;-70
2023/03/30 05:48:38;;;;;;;19.27;4.18;;;13.10;13.20;;;;;;7370632;19;20009;-70
2023/03/30 05:51:09;;;;;;;16.08;4.22;;;13.10;13.70;;;;;;7370550;19;20038;-70
2023/03/30 05:53:39;;;;;;;12.70;4.25;;;13.10;13.20;;;;;;7391765;19;20007;-70
2023/03/30 05:56:10;;;;;;;21.05;4.43;;;13.10;13.60;;;;;;7368491;19;20463;-70
2023/03/30 05:58:40;;;;;;;14.43;4.65;;;13.10;14.00;;;;;;7370071;19;20015;-70
2023/03/30 06:01:13;;;;;;;14.13;4.32;;;13.00;14.10;;;;;;7369667;19;20489;-71
2023/03/30 06:03:43;;;;;;;16.17;3.90;;;13.00;14.40;;;;;;7371267;19;20010;-71
2023/03/30 06:06:13;;;;;;;16.05;4.60;;;13.00;14.30;;;;;;7370233;19;19996;-70
2023/03/30 06:08:43;;;;;;;15.05;4.00;;;13.10;14.70;;;;;;7390360;19;20007;-70
2023/03/30 06:11:13;;;;;;;18.08;4.43;;;13.10;15.10;;;;;;7369775;19;20474;-70
2023/03/30 06:13:43;;;;;;;14.90;3.90;;;13.10;15.60;;;;;;7369789;19;20014;-70
2023/03/30 06:16:15;;;;;;;18.35;4.55;;;13.10;15.10;;;;;;7368935;19;20034;-71
2023/03/30 06:18:45;;;;;;;10.65;3.58;;;13.10;16.20;;;;;;7368979;19;20035;-70
2023/03/30 06:21:15;;;;;;;18.05;4.55;;;13.10;17.00;;;;;;7369264;19;20481;-70
2023/03/30 06:23:46;;;;;;;16.55;4.13;;;13.10;17.70;;;;;;7390381;19;20039;-72
2023/03/30 06:26:15;;;;;;;17.20;4.35;;;13.10;19.10;;;;;;7369607;19;20039;-70
2023/03/30 06:28:46;;;;;;;15.95;4.43;;;13.00;20.80;;;;;;7368650;19;20078;-70
2023/03/30 06:31:18;;;;;;;13.35;4.65;;;12.90;21.60;;;;;;7369450;19;20029;-70
2023/03/30 06:33:49;;;;;;;17.92;4.00;;;13.10;19.40;;;;;;7368388;19;20413;-70
2023/03/30 06:36:19;;;;;;;14.50;4.05;;;13.10;18.20;;;;;;7368650;19;20530;-70
2023/03/30 06:38:49;;;;;;;17.08;4.10;;;13.10;17.10;;;;;;7390484;19;20029;-70
2023/03/30 06:41:19;;;;;;;20.85;4.32;;;13.20;15.80;;;;;;7368187;19;20026;-70
2023/03/30 06:43:49;;;;;;;12.70;4.38;;;13.20;15.20;;;;;;7367658;19;20014;-70
2023/03/30 06:46:22;;;;;;;19.67;4.13;;;13.30;13.20;;;;;;7368586;19;20014;-70
2023/03/30 06:48:52;;;;;;;20.45;4.10;;;13.30;12.00;;;;;;7369311;19;20006;-70
2023/03/30 06:51:22;;;;;;;20.83;4.55;;;13.40;12.00;;;;;;7367849;19;20121;-70
2023/03/30 06:53:52;;;;;;;18.30;3.42;;;13.50;12.70;;;;;;7380602;19;20043;-70
2023/03/30 06:56:22;;;;;;;18.30;4.20;;;13.50;14.40;;;;;;7387065;19;20023;-70
2023/03/30 06:58:52;;;;;;;14.40;4.30;;;13.40;17.30;;;;;;7366874;19;20018;-71
2023/03/30 07:01:25;;;;;;;13.02;4.15;;;13.40;18.70;;;;;;7367889;19;20015;-71
2023/03/30 07:03:55;;;;;;;20.73;5.10;;;13.30;20.70;;;;;;7367792;19;20010;-71
2023/03/30 07:06:25;;;;;;;16.08;4.25;;;13.30;22.00;;;;;;7368068;19;20027;-72
2023/03/30 07:08:55;;;;;;;15.88;4.38;;;13.20;22.70;;;;;;7367700;19;20011;-70
2023/03/30 07:11:25;;;;;;;12.65;4.00;;;13.20;24.00;;;;;;7388795;19;20018;-70
2023/03/30 07:13:57;;;;;;;15.90;3.80;;;13.10;25.20;;;;;;7366676;19;20010;-70
2023/03/30 07:16:30;;;;;;;15.10;4.07;;;13.00;26.40;;;;;;7367579;19;20570;-70
2023/03/30 07:19:00;;;;;;;15.68;4.40;;;12.80;28.50;;;;;;7368816;19;20014;-70
2023/03/30 07:21:30;;;;;;;14.98;4.40;;;12.70;31.40;;;;;;7365843;19;20010;-71
2023/03/30 07:24:01;;;;;;;18.30;4.80;;;12.60;32.10;;;;;;7366952;19;20373;-71
2023/03/30 07:26:31;;;;;;;15.15;4.63;;;12.50;35.00;;;;;;7389821;19;20034;-71
2023/03/30 07:29:01;;;;;;;16.40;5.97;;;12.40;38.90;;;;;;7366152;19;20050;-71
2023/03/30 07:31:34;;;;;;;15.15;5.72;;;12.30;42.00;;;;;;7365914;19;20035;-70
2023/03/30 07:34:05;;;;;;;20.00;6.25;;;12.30;43.40;;;;;;7366418;19;20383;-71
2023/03/30 07:36:35;;;;;;;17.08;5.10;;;12.30;45.00;;;;;;7366229;19;20101;-71
2023/03/30 07:39:06;;;;;;;15.45;5.68;;;12.20;45.70;;;;;;7367626;19;20022;-70
2023/03/30 07:41:36;;;;;;;16.38;5.32;;;12.20;47.30;;;;;;7388256;19;20021;-71
2023/03/30 07:44:06;;;;;;;15.10;4.78;;;12.20;48.40;;;;;;7365353;19;20090;-70
2023/03/30 07:46:39;;;;;;;12.55;4.50;;;12.10;49.30;;;;;;7366400;19;20573;-71
2023/03/30 07:49:10;;;;;;;18.50;5.07;;;12.20;50.70;;;;;;7367325;19;20641;-69
2023/03/30 07:51:40;;;;;;;17.60;5.68;;;12.20;62.80;;;;;;7365083;19;20486;-70
2023/03/30 07:54:10;;;;;;;13.45;5.40;;;12.20;63.60;;;;;;7366678;19;20040;-69
2023/03/30 07:56:41;;;;;;;14.07;5.40;;;12.30;59.50;;;;;;7388113;19;20018;-71
2023/03/30 07:59:12;;;;;;;15.82;5.38;;;12.20;55.60;;;;;;7365038;19;20112;-69
2023/03/30 08:01:45;;;;;;;16.45;6.07;;;12.20;52.90;;;;;;7364911;19;20089;-69
2023/03/30 08:04:15;;;;;;;17.92;6.38;;;12.20;53.50;;;;;;7366754;19;20006;-70
2023/03/30 08:06:46;;;;;;;17.58;6.45;;;12.20;53.10;;;;;;7366697;19;20019;-69
2023/03/30 08:09:16;;;;;;;14.05;6.05;;;12.20;52.10;;;;;;7372288;19;20017;-70
2023/03/30 08:11:45;;;;;;;15.90;6.55;;;12.20;51.40;;;;;;7395705;19;20011;-70
2023/03/30 08:14:15;;;;;;;18.08;5.95;;;12.20;51.20;;;;;;7374046;19;20014;-70
2023/03/30 08:16:48;;;;;;;15.02;5.97;;;12.20;50.80;;;;;;7373215;19;20033;-71
2023/03/30 08:19:18;;;;;;;17.65;6.10;;;12.20;51.40;;;;;;7374439;19;20490;-71
2023/03/30 08:21:48;;;;;;;13.38;5.40;;;12.20;52.00;;;;;;7372572;19;20073;-70
2023/03/30 08:24:18;;;;;;;14.75;5.57;;;12.20;51.30;;;;;;7373225;19;20015;-70
2023/03/30 08:26:48;;;;;;;21.45;11.50;;;12.30;51.50;;;;;;7405342;19;20018;-70
2023/03/30 08:29:19;;;;;;;15.63;5.55;;;12.30;51.50;;;;;;7403920;19;20011;-70
2023/03/30 08:31:52;;;;;;;13.02;5.95;;;12.30;49.80;;;;;;7408340;19;20043;-69
2023/03/30 08:34:22;;;;;;;14.50;4.50;;;12.20;48.00;;;;;;7396331;19;20038;-69
2023/03/30 08:36:53;;;;;;;13.23;4.47;;;12.20;49.10;;;;;;7381887;19;20031;-66
2023/03/30 08:39:23;;;;;;;11.02;3.78;;;12.20;49.00;;;;;;7373460;19;20018;-69
2023/03/30 08:42:13;;;;;;;8.07;3.47;;;12.20;49.60;;;;;;7378335;19;20357;-69
2023/03/30 08:44:45;;;;;;;11.20;4.25;;;12.20;48.80;;;;;;7394909;19;20503;-69
2023/03/30 08:47:31;;;;;;;9.35;4.07;;;12.30;49.70;;;;;;7373333;19;20006;-71
2023/03/30 08:50:07;;;;;;;9.63;3.85;;;12.30;48.70;;;;;;7369235;19;20010;-69
2023/03/30 08:52:39;;;;;;;6.50;3.47;;;12.30;48.90;;;;;;7371967;19;20010;-71
2023/03/30 08:55:21;;;;;;;8.80;3.92;;;12.20;48.10;;;;;;7371657;19;20110;-69
2023/03/30 08:57:57;;;;;;;8.38;3.65;;;12.20;48.20;;;;;;7372009;19;20014;-69
2023/03/30 09:00:34;;;;;;;8.07;3.47;;;12.20;47.50;;;;;;7369859;19;20010;-70
2023/03/30 09:03:16;;;;;;;8.32;3.83;;;12.20;48.50;;;;;;7372617;19;20725;-69
2023/03/30 09:05:52;;;;;;;7.63;3.63;;;12.20;48.80;;;;;;7391361;19;20014;-70
2023/03/30 09:08:27;;;;;;;12.52;3.70;;;12.20;49.50;;;;;;7371652;19;20003;-69
2023/03/30 09:11:01;;;;;;;11.05;3.95;;;12.20;50.20;;;;;;7371438;19;20383;-69
2023/03/30 09:13:36;;;;;;;7.38;3.33;;;12.20;50.70;;;;;;7369223;19;20011;-69
2023/03/30 09:16:17;;;;;;;16.58;4.60;;;12.20;50.80;;;;;;7371428;19;20006;-70
2023/03/30 09:19:00;;;;;;;10.95;4.03;;;12.30;51.20;;;;;;7369335;19;20018;-69
2023/03/30 09:21:32;;;;;;;13.45;5.07;;;12.40;50.90;;;;;;7370892;19;20078;-69
2023/03/30 09:24:12;;;;;;;9.57;5.07;;;12.50;50.00;;;;;;7369556;19;20018;-69
2023/03/30 09:26:51;;;;;;;11.10;4.45;;;12.60;50.20;;;;;;7392620;19;20085;-69
2023/03/30 09:29:27;;;;;;;14.80;4.95;;;12.60;49.20;;;;;;7369399;19;20015;-69
2023/03/30 09:32:05;;;;;;;14.27;5.13;;;12.70;50.00;;;;;;7372277;19;20079;-69
2023/03/30 09:34:46;;;;;;;11.00;5.10;;;12.70;49.50;;;;;;7367883;19;20011;-69
2023/03/30 09:37:20;;;;;;;14.90;5.78;;;12.70;48.70;;;;;;7372515;19;20459;-69
2023/03/30 09:39:51;;;;;;;10.43;4.87;;;12.80;48.40;;;;;;7370636;19;20018;-69
2023/03/30 09:42:33;;;;;;;10.35;4.70;;;12.90;48.00;;;;;;7370748;19;20363;-69
2023/03/30 09:45:12;;;;;;;13.68;4.57;;;13.00;47.20;;;;;;7368160;19;20018;-69
2023/03/30 09:47:45;;;;;;;12.48;4.85;;;13.00;44.50;;;;;;7393732;19;20014;-69
2023/03/30 09:50:25;;;;;;;14.35;4.30;;;13.00;43.90;;;;;;7367891;19;20031;-70
2023/03/30 09:53:00;;;;;;;22.23;11.77;;;13.10;43.90;;;;;;7371624;19;20344;-68
2023/03/30 09:55:32;;;;;;;5.82;3.47;;;13.10;41.60;;;;;;7365172;19;20378;-69
2023/03/30 09:58:19;;;;;;;5.20;3.28;;;13.20;40.30;;;;;;7370185;19;20021;-69
2023/03/30 10:01:03;;;;;;;7.82;4.07;;;13.30;37.10;;;;;;7368096;19;20467;-69
2023/03/30 10:03:33;;;;;;;5.72;3.13;;;13.40;36.80;;;;;;7368378;19;20419;-69
2023/03/30 10:06:11;;;;;;;5.40;2.75;;;13.30;31.20;;;;;;7369755;19;20010;-69
2023/03/30 10:08:45;;;;;;;6.93;2.83;;;13.20;30.00;;;;;;7390507;19;20018;-71
2023/03/30 10:11:15;;;;;;;6.17;2.60;;;13.20;28.80;;;;;;7368230;19;20018;-69
2023/03/30 10:13:45;;;;;;;4.55;2.60;;;13.20;26.80;;;;;;7368010;19;20018;-69
2023/03/30 10:16:25;;;;;;;4.00;2.20;;;13.30;26.00;;;;;;7370169;19;20727;-70
2023/03/30 10:18:57;;;;;;;3.28;2.05;;;13.30;23.60;;;;;;7367551;19;20034;-69
2023/03/30 10:21:32;;;;;;;4.43;2.58;;;13.30;25.80;;;;;;7368313;19;20348;-70
2023/03/30 10:24:06;;;;;;;7.38;3.40;;;13.30;25.60;;;;;;7367522;19;20006;-70
2023/03/30 10:26:37;;;;;;;;;;;13.20;25.20;;;;;;7389896;19;20332;-70
2023/03/30 10:29:09;;;;;;;6.25;3.00;;;13.10;29.60;;;;;;7368311;19;19986;-70
2023/03/30 10:31:44;;;;;;;3.85;2.30;;;13.00;30.40;;;;;;7366784;19;20400;-70
2023/03/30 10:34:19;;;;;;;7.10;3.10;;;13.10;30.50;;;;;;7367389;19;20014;-70
2023/03/30 10:36:54;;;;;;;3.90;2.33;;;13.10;29.70;;;;;;7367890;19;20086;-70
2023/03/30 10:39:29;;;;;;;11.25;3.25;;;13.10;30.00;;;;;;7367560;19;20011;-70
2023/03/30 10:42:03;;;;;;;5.60;3.40;;;13.20;28.20;;;;;;7367396;19;20014;-70
2023/03/30 10:44:35;;;;;;;3.33;2.88;;;13.30;28.60;;;;;;7388904;19;20390;-70
2023/03/30 10:47:28;;;;;;;4.35;3.03;;;13.40;27.80;;;;;;7367650;19;20078;-70
2023/03/30 10:50:05;;;;;;;4.63;3.38;;;13.60;27.90;;;;;;7364976;19;20346;-68
2023/03/30 10:52:45;;;;;;;6.32;2.88;;;13.60;26.70;;;;;;7368748;19;20029;-69
2023/03/30 10:55:34;;;;;;;4.82;2.90;;;13.70;24.60;;;;;;7366374;19;20019;-70
2023/03/30 10:58:12;;;;;;;4.80;2.72;;;13.90;26.10;;;;;;7367901;19;20086;-69
2023/03/30 11:00:57;;;;;;;6.25;2.95;;;13.90;21.20;;;;;;7365890;19;20011;-69
2023/03/30 11:03:31;;;;;;;8.52;2.88;;;14.20;19.70;;;;;;7367170;19;20467;-69
2023/03/30 11:06:08;;;;;;;6.18;3.10;;;14.20;17.90;;;;;;7368267;19;20017;-69
2023/03/30 11:08:45;;;;;;;4.75;2.50;;;14.50;17.30;;;;;;7388637;19;20022;-70
2023/03/30 11:11:21;;;;;;;6.47;2.78;;;14.70;12.00;;;;;;7366288;19;20010;-70
2023/03/30 11:13:55;;;;;;;3.72;2.70;;;15.10;10.90;;;;;;7365476;19;20659;-70
2023/03/30 11:16:32;;;;;;;5.65;2.55;;;15.40;6.90;;;;;;7367245;19;20080;-70
2023/03/30 11:19:08;;;;;;;3.65;2.20;;;15.50;2.50;;;;;;7365645;19;20126;-70
2023/03/30 11:21:44;;;;;;;6.05;2.80;;;15.60;1.00;;;;;;7367663;19;20006;-70
2023/03/30 11:24:21;;;;;;;7.05;2.75;;;15.50;1.00;;;;;;7366393;19;20393;-70
2023/03/30 11:26:58;;;;;;;3.85;2.10;;;15.60;1.10;;;;;;7387256;19;20014;-70
2023/03/30 11:29:36;;;;;;;6.05;2.47;;;15.50;1.00;;;;;;7365316;19;20013;-71
2023/03/30 11:32:18;;;;;;;4.32;2.30;;;15.60;1.00;;;;;;7367766;19;20011;-69
2023/03/30 11:34:56;;;;;;;3.70;2.55;;;15.50;1.00;;;;;;7365467;19;20467;-71
2023/03/30 11:37:32;;;;;;;4.55;2.10;;;15.60;1.00;;;;;;7367129;19;20015;-69
2023/03/30 11:40:17;;;;;;;6.53;2.25;;;15.60;1.00;;;;;;7363818;19;20089;-69
2023/03/30 11:42:49;;;;;;;5.97;2.13;;;15.70;1.00;;;;;;7366999;19;20073;-70
2023/03/30 11:45:30;;;;;;;4.25;2.00;;;15.70;1.00;;;;;;7366068;19;20014;-69
2023/03/30 11:48:27;;;;;;;5.78;2.08;;;15.60;1.00;;;;;;7366856;19;20052;-69
2023/03/30 11:51:10;;;;;;;3.63;2.50;;;15.40;1.00;;;;;;7363947;19;20352;-69
2023/03/30 11:53:50;;;;;;;5.45;2.05;;;15.40;1.00;;;;;;7387110;19;20029;-69
2023/03/30 11:56:33;;;;;;;4.00;2.17;;;15.60;1.00;;;;;;7365162;19;20014;-69
2023/03/30 11:59:07;;;;;;;3.15;2.10;;;15.90;1.00;;;;;;7365665;19;20014;-70
2023/03/30 12:02:00;;;;;;;4.40;2.28;;;16.00;1.00;;;;;;7365888;19;20387;-70
2023/03/30 12:04:37;;;;;;;4.95;2.55;;;16.20;1.00;;;;;;7365239;19;20007;-68
2023/03/30 12:07:15;;;;;;;5.50;2.60;;;16.00;1.00;;;;;;7367363;19;20042;-68
2023/03/30 12:09:51;;;;;;;7.18;2.63;;;15.80;1.00;;;;;;7365482;19;20010;-70
2023/03/30 12:12:31;;;;;;;6.70;2.55;;;15.90;1.00;;;;;;7365979;19;20010;-71
2023/03/30 12:15:07;;;;;;;5.80;2.33;;;15.90;1.00;;;;;;7363938;19;20018;-70
2023/03/30 12:17:45;;;;;;;5.43;1.92;;;15.90;1.00;;;;;;7386361;19;20014;-70
2023/03/30 12:20:29;;;;;;;4.75;2.25;;;15.90;1.00;;;;;;7363298;19;20015;-69
2023/03/30 12:23:04;;;;;;;4.78;2.45;;;16.30;1.00;;;;;;7364772;19;20014;-70
2023/03/30 12:25:42;;;;;;;4.45;2.00;;;16.50;1.00;;;;;;7362448;19;20028;-70
2023/03/30 12:28:16;;;;;;;5.63;2.15;;;16.60;1.00;;;;;;7366750;19;20003;-70
2023/03/30 12:30:48;;;;;;;;;;;16.80;1.00;;;;;;7365010;19;20074;-70
2023/03/30 12:33:20;;;;;;;3.47;1.80;;;17.20;1.00;;;;;;7366589;19;19919;-70
2023/03/30 12:35:57;;;;;;;5.38;1.80;;;16.80;1.00;;;;;;7387766;19;20007;-70
2023/03/30 12:38:32;;;;;;;4.57;1.95;;;17.10;1.00;;;;;;7364992;19;20018;-70
2023/03/30 12:41:13;;;;;;;3.70;1.77;;;17.20;1.00;;;;;;7361682;19;20038;-70
2023/03/30 12:44:35;;;;;;;6.57;2.15;;;17.00;1.00;;;;;;7363879;19;20010;-70
2023/03/30 12:47:26;;;;;;;6.57;2.10;;;17.00;1.00;;;;;;7364627;19;20017;-70
2023/03/30 12:50:11;;;;;;;9.43;2.40;;;16.80;1.00;;;;;;7361754;19;20014;-70
2023/03/30 12:52:46;;;;;;;;;;;16.80;1.00;;;;;;7360147;19;20015;-70
2023/03/30 12:55:35;;;;;;;5.20;2.05;;;16.80;1.00;;;;;;7364557;19;19919;-70
2023/03/30 12:58:28;;;;;;;6.10;2.47;;;16.70;1.00;;;;;;7369987;19;20103;-70
2023/03/30 13:01:12;;;;;;;4.57;2.25;;;16.80;1.00;;;;;;7368992;19;20460;-71
2023/03/30 13:03:51;;;;;;;5.82;2.50;;;17.00;1.00;;;;;;7368091;19;20101;-70
2023/03/30 13:06:28;;;;;;;6.28;1.95;;;17.20;1.00;;;;;;7371052;19;20010;-71
2023/03/30 13:09:05;;;;;;;6.18;2.30;;;17.10;1.00;;;;;;7370855;19;20018;-71
2023/03/30 13:11:48;;;;;;;6.75;2.20;;;17.30;1.00;;;;;;7392550;19;20336;-70
2023/03/30 13:14:27;;;;;;;8.98;2.50;;;17.10;1.00;;;;;;7368315;19;20010;-70
2023/03/30 13:17:18;;;;;;;5.68;2.70;;;17.20;1.00;;;;;;7368748;19;20006;-70
2023/03/30 13:20:03;;;;;;;8.02;3.92;;;17.10;1.00;;;;;;7368449;19;20042;-71
2023/03/30 13:22:41;;;;;;;6.50;2.60;;;16.80;1.00;;;;;;7359093;19;20006;-69
2023/03/30 13:25:27;;;;;;;4.40;2.53;;;16.60;1.00;;;;;;7360731;19;20007;-70